sensor_id;sensor_type;location;lat;lon;timestamp;P1;durP1;ratioP1;P2;durP2;ratioP2
29478;SDS011;16437;41.836;23.480;2022-11-15T00:01:26;15.03;;;9.20;;
29478;SDS011;16437;41.836;23.480;2022-11-15T00:06:52;14.60;;;9.48;;
29478;SDS011;16437;41.836;23.480;2022-11-15T00:12:19;15.28;;;9.58;;
29478;SDS011;16437;41.836;23.480;2022-11-15T00:17:48;18.42;;;10.08;;
29478;SDS011;16437;41.836;23.480;2022-11-15T00:23:16;16.13;;;9.03;;
29478;SDS011;16437;41.836;23.480;2022-11-15T00:28:43;18.23;;;10.28;;
29478;SDS011;16437;41.836;23.480;2022-11-15T00:34:10;19.52;;;10.35;;
29478;SDS011;16437;41.836;23.480;2022-11-15T00:39:38;15.15;;;9.13;;
29478;SDS011;16437;41.836;23.480;2022-11-15T00:45:04;17.52;;;10.03;;
29478;SDS011;16437;41.836;23.480;2022-11-15T00:50:31;16.20;;;9.18;;
29478;SDS011;16437;41.836;23.480;2022-11-15T00:55:57;14.73;;;9.28;;
29478;SDS011;16437;41.836;23.480;2022-11-15T01:01:24;15.20;;;9.58;;
29478;SDS011;16437;41.836;23.480;2022-11-15T01:06:50;16.77;;;9.50;;
29478;SDS011;16437;41.836;23.480;2022-11-15T01:12:17;17.45;;;10.35;;
29478;SDS011;16437;41.836;23.480;2022-11-15T01:17:43;17.32;;;9.75;;
29478;SDS011;16437;41.836;23.480;2022-11-15T01:23:10;16.82;;;9.80;;
29478;SDS011;16437;41.836;23.480;2022-11-15T01:28:36;15.43;;;9.55;;
29478;SDS011;16437;41.836;23.480;2022-11-15T01:34:04;17.45;;;9.80;;
29478;SDS011;16437;41.836;23.480;2022-11-15T01:39:30;15.48;;;9.68;;
29478;SDS011;16437;41.836;23.480;2022-11-15T01:44:56;16.90;;;9.78;;
29478;SDS011;16437;41.836;23.480;2022-11-15T01:50:29;15.35;;;9.40;;
29478;SDS011;16437;41.836;23.480;2022-11-15T01:55:52;17.55;;;10.13;;
29478;SDS011;16437;41.836;23.480;2022-11-15T02:01:20;16.07;;;10.08;;
29478;SDS011;16437;41.836;23.480;2022-11-15T02:06:48;19.00;;;10.30;;
29478;SDS011;16437;41.836;23.480;2022-11-15T02:12:17;16.00;;;9.33;;
29478;SDS011;16437;41.836;23.480;2022-11-15T02:29:20;16.25;;;9.48;;
29478;SDS011;16437;41.836;23.480;2022-11-15T02:40:42;13.65;;;8.75;;
29478;SDS011;16437;41.836;23.480;2022-11-15T02:46:11;13.55;;;8.68;;
29478;SDS011;16437;41.836;23.480;2022-11-15T02:51:45;15.88;;;9.33;;
29478;SDS011;16437;41.836;23.480;2022-11-15T02:57:16;15.45;;;9.60;;
29478;SDS011;16437;41.836;23.480;2022-11-15T03:08:39;14.30;;;9.05;;
29478;SDS011;16437;41.836;23.480;2022-11-15T03:19:53;16.23;;;10.53;;
29478;SDS011;16437;41.836;23.480;2022-11-15T03:25:22;16.70;;;9.90;;
29478;SDS011;16437;41.836;23.480;2022-11-15T03:30:51;16.23;;;10.13;;
29478;SDS011;16437;41.836;23.480;2022-11-15T03:36:21;14.70;;;9.33;;
29478;SDS011;16437;41.836;23.480;2022-11-15T03:47:45;15.32;;;9.08;;
29478;SDS011;16437;41.836;23.480;2022-11-15T03:53:16;14.40;;;8.45;;
29478;SDS011;16437;41.836;23.480;2022-11-15T03:58:43;14.70;;;8.98;;
29478;SDS011;16437;41.836;23.480;2022-11-15T04:04:09;13.78;;;9.35;;
29478;SDS011;16437;41.836;23.480;2022-11-15T04:09:36;14.93;;;9.15;;
29478;SDS011;16437;41.836;23.480;2022-11-15T04:15:05;13.38;;;9.10;;
29478;SDS011;16437;41.836;23.480;2022-11-15T04:20:33;14.50;;;9.90;;
29478;SDS011;16437;41.836;23.480;2022-11-15T04:26:19;15.60;;;9.35;;
29478;SDS011;16437;41.836;23.480;2022-11-15T04:31:47;13.35;;;8.58;;
29478;SDS011;16437;41.836;23.480;2022-11-15T04:37:13;14.00;;;9.13;;
29478;SDS011;16437;41.836;23.480;2022-11-15T04:42:41;15.35;;;10.38;;
29478;SDS011;16437;41.836;23.480;2022-11-15T04:48:07;15.72;;;10.18;;
29478;SDS011;16437;41.836;23.480;2022-11-15T04:53:34;13.15;;;9.38;;
29478;SDS011;16437;41.836;23.480;2022-11-15T04:59:00;13.88;;;9.73;;
29478;SDS011;16437;41.836;23.480;2022-11-15T05:04:27;13.22;;;9.45;;
29478;SDS011;16437;41.836;23.480;2022-11-15T05:09:53;14.60;;;10.00;;
29478;SDS011;16437;41.836;23.480;2022-11-15T05:15:20;14.53;;;10.18;;
29478;SDS011;16437;41.836;23.480;2022-11-15T05:20:46;15.45;;;9.75;;
29478;SDS011;16437;41.836;23.480;2022-11-15T05:26:14;14.40;;;9.70;;
29478;SDS011;16437;41.836;23.480;2022-11-15T05:31:42;16.40;;;10.68;;
29478;SDS011;16437;41.836;23.480;2022-11-15T05:37:08;13.25;;;9.90;;
29478;SDS011;16437;41.836;23.480;2022-11-15T05:42:35;13.53;;;9.45;;
29478;SDS011;16437;41.836;23.480;2022-11-15T05:48:04;14.03;;;9.60;;
29478;SDS011;16437;41.836;23.480;2022-11-15T05:53:32;13.40;;;9.90;;
29478;SDS011;16437;41.836;23.480;2022-11-15T05:59:00;17.20;;;10.85;;
29478;SDS011;16437;41.836;23.480;2022-11-15T06:04:27;15.00;;;10.98;;
29478;SDS011;16437;41.836;23.480;2022-11-15T06:09:53;15.88;;;10.78;;
29478;SDS011;16437;41.836;23.480;2022-11-15T06:15:20;18.30;;;12.50;;
29478;SDS011;16437;41.836;23.480;2022-11-15T06:20:46;20.17;;;13.35;;
29478;SDS011;16437;41.836;23.480;2022-11-15T06:26:13;17.87;;;12.37;;
29478;SDS011;16437;41.836;23.480;2022-11-15T06:31:39;20.68;;;13.20;;
29478;SDS011;16437;41.836;23.480;2022-11-15T06:37:05;19.48;;;13.40;;
29478;SDS011;16437;41.836;23.480;2022-11-15T06:42:31;20.43;;;13.98;;
29478;SDS011;16437;41.836;23.480;2022-11-15T06:47:58;19.92;;;14.28;;
29478;SDS011;16437;41.836;23.480;2022-11-15T06:53:25;21.90;;;14.78;;
29478;SDS011;16437;41.836;23.480;2022-11-15T06:58:52;23.95;;;16.10;;
29478;SDS011;16437;41.836;23.480;2022-11-15T07:04:18;24.70;;;17.67;;
29478;SDS011;16437;41.836;23.480;2022-11-15T07:09:44;27.13;;;18.17;;
29478;SDS011;16437;41.836;23.480;2022-11-15T07:15:11;27.62;;;18.30;;
29478;SDS011;16437;41.836;23.480;2022-11-15T07:20:37;31.52;;;20.35;;
29478;SDS011;16437;41.836;23.480;2022-11-15T07:26:04;30.88;;;20.57;;
29478;SDS011;16437;41.836;23.480;2022-11-15T07:31:31;31.52;;;20.75;;
29478;SDS011;16437;41.836;23.480;2022-11-15T07:36:57;32.53;;;22.60;;
29478;SDS011;16437;41.836;23.480;2022-11-15T07:42:24;35.88;;;22.77;;
29478;SDS011;16437;41.836;23.480;2022-11-15T07:48:08;34.23;;;23.38;;
29478;SDS011;16437;41.836;23.480;2022-11-15T07:53:35;35.25;;;22.80;;
29478;SDS011;16437;41.836;23.480;2022-11-15T07:59:01;36.90;;;24.77;;
29478;SDS011;16437;41.836;23.480;2022-11-15T08:04:27;36.90;;;25.25;;
29478;SDS011;16437;41.836;23.480;2022-11-15T08:09:54;37.78;;;24.80;;
29478;SDS011;16437;41.836;23.480;2022-11-15T08:15:20;39.85;;;26.02;;
29478;SDS011;16437;41.836;23.480;2022-11-15T08:20:47;40.78;;;26.23;;
29478;SDS011;16437;41.836;23.480;2022-11-15T08:26:13;38.88;;;24.67;;
29478;SDS011;16437;41.836;23.480;2022-11-15T08:31:41;37.25;;;25.12;;
29478;SDS011;16437;41.836;23.480;2022-11-15T08:37:07;36.38;;;25.85;;
29478;SDS011;16437;41.836;23.480;2022-11-15T08:42:34;39.27;;;25.60;;
29478;SDS011;16437;41.836;23.480;2022-11-15T08:48:01;36.05;;;25.05;;
29478;SDS011;16437;41.836;23.480;2022-11-15T08:53:29;39.73;;;26.57;;
29478;SDS011;16437;41.836;23.480;2022-11-15T08:58:55;36.95;;;25.10;;
29478;SDS011;16437;41.836;23.480;2022-11-15T09:04:22;36.58;;;25.80;;
29478;SDS011;16437;41.836;23.480;2022-11-15T09:09:49;40.23;;;26.68;;
29478;SDS011;16437;41.836;23.480;2022-11-15T09:15:16;36.00;;;25.25;;
29478;SDS011;16437;41.836;23.480;2022-11-15T09:20:44;40.75;;;26.40;;
29478;SDS011;16437;41.836;23.480;2022-11-15T09:26:10;38.95;;;26.05;;
29478;SDS011;16437;41.836;23.480;2022-11-15T09:31:38;36.17;;;26.73;;
29478;SDS011;16437;41.836;23.480;2022-11-15T09:37:04;40.45;;;28.10;;
29478;SDS011;16437;41.836;23.480;2022-11-15T09:48:35;41.00;;;27.60;;
29478;SDS011;16437;41.836;23.480;2022-11-15T09:54:33;39.33;;;26.57;;
29478;SDS011;16437;41.836;23.480;2022-11-15T10:05:46;32.30;;;23.02;;
29478;SDS011;16437;41.836;23.480;2022-11-15T10:11:48;35.03;;;23.73;;
29478;SDS011;16437;41.836;23.480;2022-11-15T10:22:41;34.80;;;24.47;;
29478;SDS011;16437;41.836;23.480;2022-11-15T10:28:13;33.28;;;22.87;;
29478;SDS011;16437;41.836;23.480;2022-11-15T10:33:47;34.95;;;23.10;;
29478;SDS011;16437;41.836;23.480;2022-11-15T10:39:14;32.13;;;22.82;;
29478;SDS011;16437;41.836;23.480;2022-11-15T10:44:41;31.45;;;22.00;;
29478;SDS011;16437;41.836;23.480;2022-11-15T10:50:29;30.45;;;21.02;;
29478;SDS011;16437;41.836;23.480;2022-11-15T10:56:02;29.42;;;20.75;;
29478;SDS011;16437;41.836;23.480;2022-11-15T11:01:33;31.77;;;20.27;;
29478;SDS011;16437;41.836;23.480;2022-11-15T11:07:08;32.10;;;20.90;;
29478;SDS011;16437;41.836;23.480;2022-11-15T11:12:34;26.90;;;19.77;;
29478;SDS011;16437;41.836;23.480;2022-11-15T11:35:30;31.73;;;20.50;;
29478;SDS011;16437;41.836;23.480;2022-11-15T11:58:02;24.32;;;17.80;;
29478;SDS011;16437;41.836;23.480;2022-11-15T12:03:43;25.72;;;17.87;;
29478;SDS011;16437;41.836;23.480;2022-11-15T12:14:53;24.67;;;17.90;;
29478;SDS011;16437;41.836;23.480;2022-11-15T12:20:32;25.20;;;17.48;;
29478;SDS011;16437;41.836;23.480;2022-11-15T12:26:10;23.70;;;16.57;;
29478;SDS011;16437;41.836;23.480;2022-11-15T12:31:49;22.07;;;16.62;;
29478;SDS011;16437;41.836;23.480;2022-11-15T12:43:01;21.73;;;14.40;;
29478;SDS011;16437;41.836;23.480;2022-11-15T12:54:28;20.40;;;14.00;;
29478;SDS011;16437;41.836;23.480;2022-11-15T12:59:50;15.10;;;11.45;;
29478;SDS011;16437;41.836;23.480;2022-11-15T13:11:41;16.10;;;11.10;;
29478;SDS011;16437;41.836;23.480;2022-11-15T13:16:47;13.95;;;9.83;;
29478;SDS011;16437;41.836;23.480;2022-11-15T13:22:14;15.32;;;9.65;;
29478;SDS011;16437;41.836;23.480;2022-11-15T13:27:59;14.10;;;10.28;;
29478;SDS011;16437;41.836;23.480;2022-11-15T13:33:31;15.45;;;11.12;;
29478;SDS011;16437;41.836;23.480;2022-11-15T13:39:04;13.32;;;8.63;;
29478;SDS011;16437;41.836;23.480;2022-11-15T13:44:40;16.35;;;10.75;;
29478;SDS011;16437;41.836;23.480;2022-11-15T13:50:28;10.53;;;7.62;;
29478;SDS011;16437;41.836;23.480;2022-11-15T13:55:57;10.23;;;6.72;;
29478;SDS011;16437;41.836;23.480;2022-11-15T14:01:24;9.83;;;7.03;;
29478;SDS011;16437;41.836;23.480;2022-11-15T14:06:55;11.70;;;6.87;;
29478;SDS011;16437;41.836;23.480;2022-11-15T14:12:27;12.60;;;6.90;;
29478;SDS011;16437;41.836;23.480;2022-11-15T14:17:53;12.73;;;8.35;;
29478;SDS011;16437;41.836;23.480;2022-11-15T14:23:27;10.48;;;6.70;;
29478;SDS011;16437;41.836;23.480;2022-11-15T14:28:53;9.60;;;6.42;;
29478;SDS011;16437;41.836;23.480;2022-11-15T14:34:20;7.35;;;5.67;;
29478;SDS011;16437;41.836;23.480;2022-11-15T14:39:47;9.65;;;6.97;;
29478;SDS011;16437;41.836;23.480;2022-11-15T14:45:21;9.58;;;6.87;;
29478;SDS011;16437;41.836;23.480;2022-11-15T14:50:43;8.75;;;6.25;;
29478;SDS011;16437;41.836;23.480;2022-11-15T14:56:10;18.32;;;11.15;;
29478;SDS011;16437;41.836;23.480;2022-11-15T15:01:37;17.10;;;10.50;;
29478;SDS011;16437;41.836;23.480;2022-11-15T15:07:04;20.70;;;13.60;;
29478;SDS011;16437;41.836;23.480;2022-11-15T15:12:30;23.42;;;14.13;;
29478;SDS011;16437;41.836;23.480;2022-11-15T15:17:57;15.90;;;9.98;;
29478;SDS011;16437;41.836;23.480;2022-11-15T15:23:23;27.30;;;15.35;;
29478;SDS011;16437;41.836;23.480;2022-11-15T15:28:51;43.85;;;22.27;;
29478;SDS011;16437;41.836;23.480;2022-11-15T15:34:18;19.62;;;11.33;;
29478;SDS011;16437;41.836;23.480;2022-11-15T15:39:44;14.15;;;7.92;;
29478;SDS011;16437;41.836;23.480;2022-11-15T15:45:11;11.88;;;7.62;;
29478;SDS011;16437;41.836;23.480;2022-11-15T15:50:37;13.00;;;8.48;;
29478;SDS011;16437;41.836;23.480;2022-11-15T15:56:04;16.25;;;9.60;;
29478;SDS011;16437;41.836;23.480;2022-11-15T16:01:33;15.98;;;10.05;;
29478;SDS011;16437;41.836;23.480;2022-11-15T16:07:00;24.92;;;14.78;;
29478;SDS011;16437;41.836;23.480;2022-11-15T16:12:32;16.75;;;11.08;;
29478;SDS011;16437;41.836;23.480;2022-11-15T16:17:59;20.97;;;13.17;;
29478;SDS011;16437;41.836;23.480;2022-11-15T16:23:27;41.02;;;22.20;;
29478;SDS011;16437;41.836;23.480;2022-11-15T16:28:53;23.98;;;13.15;;
29478;SDS011;16437;41.836;23.480;2022-11-15T16:34:19;30.30;;;17.65;;
29478;SDS011;16437;41.836;23.480;2022-11-15T16:39:46;26.85;;;15.98;;
29478;SDS011;16437;41.836;23.480;2022-11-15T16:45:12;44.90;;;24.85;;
29478;SDS011;16437;41.836;23.480;2022-11-15T16:50:39;29.63;;;16.50;;
29478;SDS011;16437;41.836;23.480;2022-11-15T16:56:17;24.12;;;14.70;;
29478;SDS011;16437;41.836;23.480;2022-11-15T17:01:45;22.85;;;13.50;;
29478;SDS011;16437;41.836;23.480;2022-11-15T17:07:12;19.90;;;12.35;;
29478;SDS011;16437;41.836;23.480;2022-11-15T17:12:39;23.57;;;13.65;;
29478;SDS011;16437;41.836;23.480;2022-11-15T17:18:05;25.30;;;13.70;;
29478;SDS011;16437;41.836;23.480;2022-11-15T17:23:33;22.22;;;13.00;;
29478;SDS011;16437;41.836;23.480;2022-11-15T17:29:00;20.40;;;12.88;;
29478;SDS011;16437;41.836;23.480;2022-11-15T17:34:27;20.30;;;13.25;;
29478;SDS011;16437;41.836;23.480;2022-11-15T17:39:54;20.00;;;12.68;;
29478;SDS011;16437;41.836;23.480;2022-11-15T17:45:20;22.58;;;13.35;;
29478;SDS011;16437;41.836;23.480;2022-11-15T17:51:00;18.95;;;12.68;;
29478;SDS011;16437;41.836;23.480;2022-11-15T17:56:28;19.60;;;12.60;;
29478;SDS011;16437;41.836;23.480;2022-11-15T18:01:55;21.75;;;13.08;;
29478;SDS011;16437;41.836;23.480;2022-11-15T18:07:21;20.85;;;12.55;;
29478;SDS011;16437;41.836;23.480;2022-11-15T18:12:48;21.70;;;13.18;;
29478;SDS011;16437;41.836;23.480;2022-11-15T18:18:14;28.23;;;15.15;;
29478;SDS011;16437;41.836;23.480;2022-11-15T18:23:42;21.12;;;13.00;;
29478;SDS011;16437;41.836;23.480;2022-11-15T18:29:09;23.22;;;13.95;;
29478;SDS011;16437;41.836;23.480;2022-11-15T18:34:35;21.90;;;14.15;;
29478;SDS011;16437;41.836;23.480;2022-11-15T18:40:01;24.82;;;16.07;;
29478;SDS011;16437;41.836;23.480;2022-11-15T18:45:28;29.12;;;16.30;;
29478;SDS011;16437;41.836;23.480;2022-11-15T18:50:59;28.55;;;17.05;;
29478;SDS011;16437;41.836;23.480;2022-11-15T18:56:27;27.98;;;17.62;;
29478;SDS011;16437;41.836;23.480;2022-11-15T19:01:55;28.15;;;18.02;;
29478;SDS011;16437;41.836;23.480;2022-11-15T19:07:21;33.90;;;18.87;;
29478;SDS011;16437;41.836;23.480;2022-11-15T19:12:48;31.27;;;19.48;;
29478;SDS011;16437;41.836;23.480;2022-11-15T19:18:14;30.50;;;19.62;;
29478;SDS011;16437;41.836;23.480;2022-11-15T19:23:41;29.98;;;18.50;;
29478;SDS011;16437;41.836;23.480;2022-11-15T19:29:08;31.75;;;19.80;;
29478;SDS011;16437;41.836;23.480;2022-11-15T19:34:35;29.67;;;19.20;;
29478;SDS011;16437;41.836;23.480;2022-11-15T19:40:03;28.20;;;17.55;;
29478;SDS011;16437;41.836;23.480;2022-11-15T19:45:30;29.50;;;18.32;;
29478;SDS011;16437;41.836;23.480;2022-11-15T19:51:09;28.80;;;17.02;;
29478;SDS011;16437;41.836;23.480;2022-11-15T19:56:33;30.02;;;16.65;;
29478;SDS011;16437;41.836;23.480;2022-11-15T20:01:59;27.17;;;16.10;;
29478;SDS011;16437;41.836;23.480;2022-11-15T20:07:26;28.15;;;16.07;;
29478;SDS011;16437;41.836;23.480;2022-11-15T20:12:53;24.30;;;15.48;;
29478;SDS011;16437;41.836;23.480;2022-11-15T20:18:19;25.92;;;15.72;;
29478;SDS011;16437;41.836;23.480;2022-11-15T20:23:47;25.75;;;16.02;;
29478;SDS011;16437;41.836;23.480;2022-11-15T20:29:14;24.25;;;15.43;;
29478;SDS011;16437;41.836;23.480;2022-11-15T20:34:41;27.22;;;16.17;;
29478;SDS011;16437;41.836;23.480;2022-11-15T20:40:08;24.07;;;15.25;;
29478;SDS011;16437;41.836;23.480;2022-11-15T20:45:37;24.00;;;14.50;;
29478;SDS011;16437;41.836;23.480;2022-11-15T20:51:09;22.85;;;14.60;;
29478;SDS011;16437;41.836;23.480;2022-11-15T20:56:39;21.37;;;13.60;;
29478;SDS011;16437;41.836;23.480;2022-11-15T21:02:05;22.13;;;13.80;;
29478;SDS011;16437;41.836;23.480;2022-11-15T21:07:32;22.25;;;14.10;;
29478;SDS011;16437;41.836;23.480;2022-11-15T21:12:58;20.27;;;13.20;;
29478;SDS011;16437;41.836;23.480;2022-11-15T21:18:25;21.73;;;13.70;;
29478;SDS011;16437;41.836;23.480;2022-11-15T21:23:51;18.92;;;12.78;;
29478;SDS011;16437;41.836;23.480;2022-11-15T21:29:18;20.80;;;13.60;;
29478;SDS011;16437;41.836;23.480;2022-11-15T21:34:45;17.77;;;12.20;;
29478;SDS011;16437;41.836;23.480;2022-11-15T21:40:11;19.62;;;12.43;;
29478;SDS011;16437;41.836;23.480;2022-11-15T21:45:38;20.97;;;13.48;;
29478;SDS011;16437;41.836;23.480;2022-11-15T21:51:05;21.50;;;13.60;;
29478;SDS011;16437;41.836;23.480;2022-11-15T21:56:33;21.93;;;13.58;;
29478;SDS011;16437;41.836;23.480;2022-11-15T22:01:59;24.00;;;14.50;;
29478;SDS011;16437;41.836;23.480;2022-11-15T22:07:38;23.65;;;13.65;;
29478;SDS011;16437;41.836;23.480;2022-11-15T22:13:04;21.33;;;12.98;;
29478;SDS011;16437;41.836;23.480;2022-11-15T22:18:31;23.98;;;14.87;;
29478;SDS011;16437;41.836;23.480;2022-11-15T22:23:57;23.85;;;14.07;;
29478;SDS011;16437;41.836;23.480;2022-11-15T22:29:24;23.55;;;15.60;;
29478;SDS011;16437;41.836;23.480;2022-11-15T22:34:50;23.65;;;14.43;;
29478;SDS011;16437;41.836;23.480;2022-11-15T22:40:17;24.20;;;14.35;;
29478;SDS011;16437;41.836;23.480;2022-11-15T22:51:17;22.98;;;14.90;;
29478;SDS011;16437;41.836;23.480;2022-11-15T22:56:43;22.75;;;14.13;;
29478;SDS011;16437;41.836;23.480;2022-11-15T23:02:10;24.43;;;14.90;;
29478;SDS011;16437;41.836;23.480;2022-11-15T23:07:36;21.45;;;13.70;;
29478;SDS011;16437;41.836;23.480;2022-11-15T23:13:09;20.50;;;12.75;;
29478;SDS011;16437;41.836;23.480;2022-11-15T23:18:41;22.85;;;13.60;;
29478;SDS011;16437;41.836;23.480;2022-11-15T23:24:08;20.95;;;13.70;;
29478;SDS011;16437;41.836;23.480;2022-11-15T23:29:36;21.95;;;13.60;;
29478;SDS011;16437;41.836;23.480;2022-11-15T23:35:20;21.48;;;13.53;;
29478;SDS011;16437;41.836;23.480;2022-11-15T23:40:50;22.35;;;14.03;;
29478;SDS011;16437;41.836;23.480;2022-11-15T23:46:18;21.37;;;14.23;;
29478;SDS011;16437;41.836;23.480;2022-11-15T23:51:44;22.15;;;14.63;;
29478;SDS011;16437;41.836;23.480;2022-11-15T23:57:11;23.65;;;15.03;;
